Time;durP1;ratioP1;P1;durP2;ratioP2;P2;SDS_P1;SDS_P2;PMS_P1;PMS_P2;Temp;Humidity;BMP_temperature;BMP_pressure;BME280_temperature;BME280_humidity;BME280_pressure;Samples;Min_cycle;Max_cycle;Signal;HPM_P1;HPM_P2
2022/03/09 00:00:09;;;;;;;10.02;4.25;;;4.20;63.20;;;;;;5070621;28;20045;-79
2022/03/09 00:02:35;;;;;;;9.63;4.22;;;4.20;63.30;;;;;;5069986;28;20037;-79
2022/03/09 00:05:00;;;;;;;10.50;4.65;;;4.20;63.30;;;;;;5049552;28;20036;-79
2022/03/09 00:07:27;;;;;;;9.55;4.03;;;4.20;63.40;;;;;;5070350;28;20544;-79
2022/03/09 00:09:53;;;;;;;9.57;4.55;;;4.20;63.70;;;;;;5070356;28;20040;-80
2022/03/09 00:12:19;;;;;;;9.20;4.55;;;4.10;63.80;;;;;;5070209;28;20044;-80
2022/03/09 00:14:46;;;;;;;10.00;4.55;;;4.10;63.80;;;;;;5053593;28;20032;-80
2022/03/09 00:17:12;;;;;;;11.30;4.40;;;4.10;63.80;;;;;;5053458;28;20033;-80
2022/03/09 00:19:38;;;;;;;9.05;4.32;;;4.10;64.00;;;;;;5061905;28;20405;-80
2022/03/09 00:22:04;;;;;;;12.25;4.82;;;4.00;64.20;;;;;;5049945;28;20531;-80
2022/03/09 00:24:30;;;;;;;10.07;4.60;;;4.00;64.40;;;;;;5049894;28;20037;-80
2022/03/09 00:26:55;;;;;;;10.63;4.53;;;4.00;64.40;;;;;;5050154;28;20045;-79
2022/03/09 00:29:21;;;;;;;9.75;4.63;;;3.90;64.60;;;;;;5049878;28;20080;-80
2022/03/09 00:31:47;;;;;;;10.77;4.65;;;3.90;65.00;;;;;;5049778;28;20448;-80
2022/03/09 00:34:12;;;;;;;11.77;4.60;;;3.90;65.60;;;;;;5049982;28;20516;-80
2022/03/09 00:36:39;;;;;;;9.48;4.47;;;3.80;65.60;;;;;;5049890;28;20086;-80
2022/03/09 00:39:04;;;;;;;12.77;5.22;;;3.80;65.90;;;;;;5033356;28;20120;-80
2022/03/09 00:41:30;;;;;;;11.65;4.65;;;3.70;66.20;;;;;;5050136;28;20133;-80
2022/03/09 00:43:56;;;;;;;14.32;4.90;;;3.70;66.60;;;;;;5049675;28;20498;-80
2022/03/09 00:46:21;;;;;;;9.52;4.15;;;3.70;67.10;;;;;;5033459;28;20045;-80
2022/03/09 00:48:47;;;;;;;12.25;4.93;;;3.60;67.70;;;;;;5033361;28;20041;-80
2022/03/09 00:51:13;;;;;;;10.85;4.88;;;3.50;68.30;;;;;;5049546;28;20041;-80
2022/03/09 00:53:39;;;;;;;10.55;4.60;;;3.50;68.40;;;;;;5049591;28;20124;-80
2022/03/09 00:56:05;;;;;;;9.40;4.93;;;3.50;68.90;;;;;;5049920;28;20162;-80
2022/03/09 00:58:31;;;;;;;11.25;5.43;;;3.40;68.90;;;;;;5033172;28;20079;-80
2022/03/09 01:00:56;;;;;;;10.05;4.90;;;3.40;68.90;;;;;;5049683;28;20095;-80
2022/03/09 01:03:22;;;;;;;10.57;4.80;;;3.40;68.80;;;;;;5033020;28;20059;-80
2022/03/09 01:05:48;;;;;;;11.18;4.78;;;3.40;68.80;;;;;;5049554;28;20494;-80
2022/03/09 01:08:13;;;;;;;8.63;4.32;;;3.40;69.20;;;;;;5033395;28;20033;-80
2022/03/09 01:10:39;;;;;;;10.90;5.05;;;3.40;69.50;;;;;;5049804;28;20561;-80
2022/03/09 01:13:05;;;;;;;10.23;5.18;;;3.30;70.00;;;;;;5049762;28;20048;-80
2022/03/09 01:15:31;;;;;;;15.25;5.00;;;3.30;70.70;;;;;;5049301;28;20490;-80
2022/03/09 01:17:57;;;;;;;10.57;5.15;;;3.30;70.70;;;;;;5049787;28;20041;-80
2022/03/09 01:20:23;;;;;;;11.30;5.28;;;3.20;71.10;;;;;;5049421;28;20128;-80
2022/03/09 01:22:48;;;;;;;11.13;5.55;;;3.20;71.60;;;;;;5049395;28;20041;-80
2022/03/09 01:25:14;;;;;;;9.95;5.10;;;3.10;72.10;;;;;;5049316;28;20041;-80
2022/03/09 01:27:40;;;;;;;10.60;5.30;;;3.10;72.30;;;;;;5033119;28;20037;-80
2022/03/09 01:30:07;;;;;;;11.23;6.30;;;3.10;72.50;;;;;;5049739;28;22007;-80
2022/03/09 01:32:33;;;;;;;11.20;5.55;;;3.00;73.10;;;;;;5049512;28;20029;-80
2022/03/09 01:34:59;;;;;;;10.57;5.18;;;3.00;73.00;;;;;;5049362;28;20450;-79
2022/03/09 01:37:24;;;;;;;10.40;5.05;;;3.00;73.40;;;;;;5033026;28;20033;-80
2022/03/09 01:39:50;;;;;;;11.40;5.30;;;2.90;74.10;;;;;;5049804;28;20418;-80
2022/03/09 01:42:16;;;;;;;10.68;5.45;;;2.90;74.10;;;;;;5049529;28;20513;-80
2022/03/09 01:44:41;;;;;;;11.15;4.80;;;2.90;74.50;;;;;;5052816;28;20041;-80
2022/03/09 01:47:07;;;;;;;11.80;5.43;;;2.90;74.90;;;;;;5052947;28;20060;-80
2022/03/09 01:49:33;;;;;;;13.38;5.95;;;2.80;75.40;;;;;;5036086;28;20052;-80
2022/03/09 01:52:00;;;;;;;12.98;5.85;;;2.80;75.80;;;;;;5052756;28;20122;-80
2022/03/09 01:54:27;;;;;;;13.52;5.68;;;2.80;75.90;;;;;;5052920;28;20067;-79
2022/03/09 01:56:52;;;;;;;11.82;5.75;;;2.70;76.70;;;;;;5036080;28;20498;-80
2022/03/09 01:59:19;;;;;;;11.75;5.65;;;2.70;76.70;;;;;;5052752;28;20114;-80
2022/03/09 02:01:46;;;;;;;10.93;5.30;;;2.70;77.50;;;;;;5035875;28;20068;-80
2022/03/09 02:04:12;;;;;;;11.90;5.43;;;2.60;77.50;;;;;;5052374;28;20071;-80
2022/03/09 02:06:39;;;;;;;10.55;5.10;;;2.60;77.90;;;;;;5052661;28;20477;-80
2022/03/09 02:11:51;;;;;;;11.98;5.13;;;2.60;78.70;;;;;;5052320;28;20065;-80
2022/03/09 02:14:30;;;;;;;12.90;5.78;;;2.60;78.80;;;;;;5052101;28;20103;-80
2022/03/09 02:16:57;;;;;;;10.60;4.72;;;2.50;80.70;;;;;;5035744;28;20041;-80
2022/03/09 02:19:22;;;;;;;11.05;5.63;;;2.50;79.70;;;;;;5052670;28;20491;-80
2022/03/09 02:21:54;;;;;;;11.73;5.05;;;2.50;80.50;;;;;;5052327;28;20095;-80
2022/03/09 02:24:21;;;;;;;14.48;6.20;;;2.50;80.70;;;;;;5035388;28;20041;-80
2022/03/09 02:26:48;;;;;;;16.13;5.80;;;2.50;80.60;;;;;;5035871;28;20063;-80
2022/03/09 02:29:14;;;;;;;11.60;5.70;;;2.50;80.90;;;;;;5052016;28;20077;-80
2022/03/09 02:31:40;;;;;;;11.30;5.43;;;2.50;81.00;;;;;;5035554;28;20067;-80
2022/03/09 02:34:05;;;;;;;13.32;5.85;;;2.40;81.30;;;;;;5051839;28;20490;-80
2022/03/09 02:36:31;;;;;;;11.38;5.63;;;2.40;81.50;;;;;;5052296;28;20072;-80
2022/03/09 02:38:58;;;;;;;13.38;5.97;;;2.50;82.10;;;;;;5052100;28;20037;-80
2022/03/09 02:41:24;;;;;;;11.15;6.22;;;2.40;82.20;;;;;;5051998;28;20041;-80
2022/03/09 02:43:49;;;;;;;11.15;5.85;;;2.40;83.10;;;;;;5051944;28;20376;-80
2022/03/09 02:46:15;;;;;;;11.90;6.53;;;2.40;83.70;;;;;;5051960;28;20102;-80
2022/03/09 02:48:41;;;;;;;12.68;5.60;;;2.40;83.70;;;;;;5052126;28;20091;-80
2022/03/09 02:51:06;;;;;;;12.75;6.07;;;2.40;83.50;;;;;;5051767;28;20041;-80
2022/03/09 02:53:32;;;;;;;13.18;6.15;;;2.40;84.00;;;;;;5034786;28;20794;-80
2022/03/09 02:55:57;;;;;;;12.98;6.22;;;2.30;84.40;;;;;;5051794;28;20033;-80
2022/03/09 02:58:25;;;;;;;11.75;5.70;;;2.30;84.50;;;;;;5053065;28;20044;-80
2022/03/09 03:00:50;;;;;;;13.32;6.60;;;2.30;84.70;;;;;;5051516;28;20044;-80
2022/03/09 03:03:16;;;;;;;10.70;5.95;;;2.30;85.00;;;;;;5034700;28;20128;-80
2022/03/09 03:05:42;;;;;;;12.68;5.93;;;2.30;85.10;;;;;;5051583;28;20128;-80
2022/03/09 03:08:07;;;;;;;12.07;6.25;;;2.30;85.30;;;;;;5051593;28;20037;-80
2022/03/09 03:10:33;;;;;;;13.93;5.78;;;2.30;85.30;;;;;;5051093;28;20048;-80
2022/03/09 03:12:58;;;;;;;11.10;5.65;;;2.30;86.30;;;;;;5051358;28;20040;-80
2022/03/09 03:15:24;;;;;;;12.05;6.60;;;2.30;86.40;;;;;;5051208;28;20039;-80
2022/03/09 03:17:49;;;;;;;12.15;6.38;;;2.30;86.60;;;;;;5051283;28;20494;-80
2022/03/09 03:20:15;;;;;;;12.27;5.82;;;2.30;86.60;;;;;;5051291;28;20082;-79
2022/03/09 03:22:40;;;;;;;11.25;5.72;;;2.20;86.40;;;;;;5051070;28;20124;-80
2022/03/09 03:25:06;;;;;;;11.05;5.80;;;2.30;87.00;;;;;;5050694;28;20045;-80
2022/03/09 03:27:32;;;;;;;12.80;6.50;;;2.20;87.40;;;;;;5050996;28;20411;-80
2022/03/09 03:29:57;;;;;;;11.32;6.10;;;2.20;87.30;;;;;;5051015;28;20070;-79
2022/03/09 03:32:23;;;;;;;11.85;6.05;;;2.20;87.60;;;;;;5050828;28;20467;-80
2022/03/09 03:34:48;;;;;;;11.65;6.13;;;2.20;87.90;;;;;;5050990;28;20041;-80
2022/03/09 03:37:14;;;;;;;11.98;6.63;;;2.20;87.90;;;;;;5050804;28;20050;-80
2022/03/09 03:39:40;;;;;;;11.82;5.82;;;2.10;88.10;;;;;;5050721;28;20068;-80
2022/03/09 03:42:06;;;;;;;14.18;6.10;;;2.10;88.30;;;;;;5034089;28;20041;-80
2022/03/09 03:44:32;;;;;;;15.68;6.65;;;2.00;88.60;;;;;;5033967;28;20072;-79
2022/03/09 03:46:58;;;;;;;11.40;5.70;;;2.00;89.40;;;;;;5050712;28;20599;-80
2022/03/09 03:49:23;;;;;;;11.73;6.18;;;2.00;89.80;;;;;;5050946;28;20040;-80
2022/03/09 03:51:49;;;;;;;11.88;5.82;;;1.90;90.00;;;;;;5050479;28;20521;-80
2022/03/09 03:54:14;;;;;;;12.82;6.72;;;1.90;90.00;;;;;;5033781;28;20064;-80
2022/03/09 03:56:40;;;;;;;12.82;6.75;;;1.80;90.30;;;;;;5050510;28;20040;-80
2022/03/09 03:59:06;;;;;;;14.32;7.10;;;1.80;90.40;;;;;;5050513;28;20167;-80
2022/03/09 04:01:31;;;;;;;11.95;5.78;;;1.80;90.30;;;;;;5050542;28;20077;-80
2022/03/09 04:03:57;;;;;;;13.73;6.40;;;1.80;90.20;;;;;;5050171;28;20508;-79
2022/03/09 04:06:22;;;;;;;11.98;6.22;;;1.70;90.30;;;;;;5050008;28;20041;-80
2022/03/09 04:08:48;;;;;;;14.45;6.95;;;1.70;90.40;;;;;;5033506;28;20041;-80
2022/03/09 04:11:13;;;;;;;12.18;6.40;;;1.70;90.60;;;;;;5050302;28;20179;-79
2022/03/09 04:13:39;;;;;;;12.80;6.30;;;1.70;90.70;;;;;;5033468;28;20103;-80
2022/03/09 04:16:05;;;;;;;11.93;6.00;;;1.70;91.00;;;;;;5050164;28;20033;-80
2022/03/09 04:18:30;;;;;;;12.75;6.45;;;1.70;91.00;;;;;;5050376;28;20072;-80
2022/03/09 04:20:56;;;;;;;13.75;7.25;;;1.70;91.00;;;;;;5050420;28;20048;-79
2022/03/09 04:23:21;;;;;;;12.23;6.35;;;1.70;91.20;;;;;;5050283;28;20048;-80
2022/03/09 04:25:47;;;;;;;22.63;8.23;;;1.60;91.20;;;;;;5033333;28;20529;-80
2022/03/09 04:28:12;;;;;;;11.82;6.57;;;1.70;91.40;;;;;;5050288;28;20047;-80
2022/03/09 04:30:38;;;;;;;12.95;6.30;;;1.60;91.20;;;;;;5050077;28;20132;-80
2022/03/09 04:33:04;;;;;;;14.00;7.50;;;1.60;91.40;;;;;;5049940;28;20067;-80
2022/03/09 04:35:29;;;;;;;12.57;6.60;;;1.60;91.40;;;;;;5049708;28;20083;-80
2022/03/09 04:37:55;;;;;;;11.57;6.13;;;1.60;91.60;;;;;;5033500;28;20413;-80
2022/03/09 04:40:20;;;;;;;13.73;6.45;;;1.60;91.30;;;;;;5049991;28;20047;-79
2022/03/09 04:42:46;;;;;;;13.05;6.13;;;1.60;91.50;;;;;;5050047;28;20037;-80
2022/03/09 04:45:12;;;;;;;13.20;6.47;;;1.60;91.50;;;;;;5049689;28;20048;-80
2022/03/09 04:47:37;;;;;;;12.95;6.72;;;1.50;91.60;;;;;;5033335;28;20037;-80
2022/03/09 04:50:03;;;;;;;13.88;6.70;;;1.50;91.60;;;;;;5049916;28;20041;-80
2022/03/09 04:52:29;;;;;;;12.07;6.18;;;1.50;91.70;;;;;;5049594;28;20029;-80
2022/03/09 04:54:54;;;;;;;14.02;6.90;;;1.50;91.60;;;;;;5049447;28;20063;-80
2022/03/09 04:57:20;;;;;;;12.27;6.72;;;1.50;91.70;;;;;;5050106;28;20033;-80
2022/03/09 04:59:45;;;;;;;14.85;7.05;;;1.50;91.70;;;;;;5050032;28;20037;-80
2022/03/09 05:02:12;;;;;;;14.07;6.65;;;1.40;92.00;;;;;;5049576;28;20052;-80
2022/03/09 05:04:37;;;;;;;13.32;6.45;;;1.50;91.90;;;;;;5033290;28;20055;-80
2022/03/09 05:07:03;;;;;;;11.85;6.25;;;1.40;91.80;;;;;;5049668;28;20045;-80
2022/03/09 05:09:29;;;;;;;11.50;5.78;;;1.40;91.90;;;;;;5049371;28;20037;-80
2022/03/09 05:11:54;;;;;;;12.63;6.20;;;1.40;92.00;;;;;;5049660;28;20048;-80
2022/03/09 05:14:20;;;;;;;13.23;6.68;;;1.40;92.00;;;;;;5049391;28;20045;-80
2022/03/09 05:16:46;;;;;;;11.98;6.30;;;1.40;91.80;;;;;;5049582;28;20072;-80
2022/03/09 05:19:11;;;;;;;12.98;7.25;;;1.40;91.80;;;;;;5053156;28;20076;-80
2022/03/09 05:21:37;;;;;;;12.13;6.10;;;1.40;91.80;;;;;;5053682;28;20442;-79
2022/03/09 05:24:03;;;;;;;14.60;6.28;;;1.40;91.80;;;;;;5052964;28;20562;-80
2022/03/09 05:26:29;;;;;;;13.00;6.55;;;1.40;91.70;;;;;;5053416;28;20041;-80
2022/03/09 05:28:56;;;;;;;12.50;6.45;;;1.40;91.70;;;;;;5037058;28;20037;-79
2022/03/09 05:31:22;;;;;;;13.52;6.43;;;1.40;91.80;;;;;;5053146;28;20052;-79
2022/03/09 05:33:47;;;;;;;11.85;6.22;;;1.40;91.90;;;;;;5049340;28;20337;-76
2022/03/09 05:36:13;;;;;;;12.20;5.97;;;1.40;91.90;;;;;;5032979;28;20120;-79
2022/03/09 05:38:39;;;;;;;13.13;5.93;;;1.40;91.90;;;;;;5053487;28;20033;-79
2022/03/09 05:41:04;;;;;;;13.55;6.60;;;1.40;92.20;;;;;;5052865;28;20644;-79
2022/03/09 05:43:30;;;;;;;14.50;5.85;;;1.40;92.20;;;;;;5053231;28;20039;-79
2022/03/09 05:45:55;;;;;;;13.65;6.80;;;1.40;92.10;;;;;;5053054;28;20090;-79
2022/03/09 05:48:21;;;;;;;12.25;6.65;;;1.40;91.90;;;;;;5053416;28;20041;-80
2022/03/09 05:50:47;;;;;;;11.82;6.05;;;1.30;92.00;;;;;;5052685;28;20540;-80
2022/03/09 05:53:13;;;;;;;12.60;6.10;;;1.30;92.00;;;;;;5052224;28;20037;-79
2022/03/09 05:55:38;;;;;;;13.90;6.22;;;1.30;92.10;;;;;;5052713;28;20036;-79
2022/03/09 05:58:04;;;;;;;15.15;6.70;;;1.30;92.10;;;;;;5052921;28;20037;-79
2022/03/09 06:00:30;;;;;;;12.32;6.10;;;1.30;92.00;;;;;;5036266;28;20077;-80
2022/03/09 06:02:56;;;;;;;15.90;6.93;;;1.30;92.10;;;;;;5052375;28;20083;-79
2022/03/09 06:05:22;;;;;;;13.05;6.18;;;1.30;92.50;;;;;;5052773;28;20045;-79
2022/03/09 06:07:47;;;;;;;12.48;6.47;;;1.30;92.50;;;;;;5052468;28;20596;-80
2022/03/09 06:10:13;;;;;;;12.60;6.55;;;1.20;92.50;;;;;;5052737;28;20482;-80
2022/03/09 06:12:39;;;;;;;13.15;6.28;;;1.20;92.60;;;;;;5052468;28;20418;-80
2022/03/09 06:15:05;;;;;;;13.52;6.90;;;1.20;92.70;;;;;;5052209;28;20099;-80
2022/03/09 06:17:30;;;;;;;14.00;6.90;;;1.20;93.00;;;;;;5052467;28;20079;-79
2022/03/09 06:19:56;;;;;;;13.23;6.88;;;1.20;92.80;;;;;;5052396;28;20073;-79
2022/03/09 06:22:21;;;;;;;13.23;6.72;;;1.20;92.90;;;;;;5052421;28;20041;-79
2022/03/09 06:24:47;;;;;;;13.40;6.85;;;1.20;92.80;;;;;;5052045;28;20041;-80
2022/03/09 06:27:13;;;;;;;13.10;6.95;;;1.20;93.00;;;;;;5052342;28;20051;-80
2022/03/09 06:29:38;;;;;;;12.13;6.20;;;1.20;92.90;;;;;;5051811;28;20421;-79
2022/03/09 06:32:04;;;;;;;16.77;7.25;;;1.20;93.10;;;;;;5051788;28;20041;-79
2022/03/09 06:34:30;;;;;;;12.73;6.65;;;1.20;93.10;;;;;;5035344;28;20076;-79
2022/03/09 06:36:55;;;;;;;14.95;6.28;;;1.30;93.30;;;;;;5052125;28;20127;-79
2022/03/09 06:39:21;;;;;;;13.40;6.95;;;1.30;93.40;;;;;;5035554;28;20036;-79
2022/03/09 06:41:47;;;;;;;12.90;6.20;;;1.30;93.20;;;;;;5035413;28;20515;-80
2022/03/09 06:44:14;;;;;;;11.75;6.57;;;1.30;93.50;;;;;;5052048;28;20043;-80
2022/03/09 06:46:41;;;;;;;14.45;6.43;;;1.40;93.60;;;;;;5051907;28;20124;-80
2022/03/09 06:49:06;;;;;;;14.13;7.07;;;1.40;93.40;;;;;;5049433;28;20494;-80
2022/03/09 06:51:32;;;;;;;14.57;6.88;;;1.40;93.50;;;;;;5051361;28;20101;-79
2022/03/09 06:53:58;;;;;;;13.48;6.65;;;1.50;93.50;;;;;;5051148;28;20072;-80
2022/03/09 06:56:24;;;;;;;14.48;6.25;;;1.50;93.50;;;;;;5051548;28;20483;-80
2022/03/09 06:58:50;;;;;;;12.65;6.22;;;1.50;93.40;;;;;;5051429;28;20072;-79
2022/03/09 07:01:15;;;;;;;13.93;6.50;;;1.60;93.40;;;;;;5051159;28;20080;-80
2022/03/09 07:03:41;;;;;;;13.90;6.63;;;1.60;93.50;;;;;;5051501;28;20045;-79
2022/03/09 07:06:07;;;;;;;13.48;6.75;;;1.70;93.60;;;;;;5050451;28;20123;-80
2022/03/09 07:08:33;;;;;;;16.13;7.20;;;1.70;93.50;;;;;;5051278;28;20040;-79
2022/03/09 07:10:59;;;;;;;13.18;6.78;;;1.80;93.60;;;;;;5034257;28;20041;-79
2022/03/09 07:13:25;;;;;;;13.82;6.65;;;1.80;93.80;;;;;;5058803;28;20187;-79
2022/03/09 07:15:51;;;;;;;12.13;6.18;;;1.90;93.70;;;;;;5041954;28;20037;-79
2022/03/09 07:18:17;;;;;;;13.57;6.32;;;1.90;93.60;;;;;;5034136;28;20083;-79
2022/03/09 07:20:43;;;;;;;12.38;6.32;;;2.00;93.40;;;;;;5050845;28;20132;-79
2022/03/09 07:23:08;;;;;;;14.27;7.30;;;2.10;93.40;;;;;;5050842;28;20102;-80
2022/03/09 07:25:34;;;;;;;13.43;7.22;;;2.20;93.20;;;;;;5051223;28;20084;-80
2022/03/09 07:28:01;;;;;;;12.15;6.18;;;2.20;92.80;;;;;;5049519;28;20037;-79
2022/03/09 07:30:27;;;;;;;13.40;6.60;;;2.30;92.70;;;;;;5049799;28;20136;-80
2022/03/09 07:32:52;;;;;;;14.55;7.13;;;2.40;92.40;;;;;;5050387;28;20124;-80
2022/03/09 07:35:18;;;;;;;13.25;7.20;;;2.50;92.30;;;;;;5050114;28;20041;-80
2022/03/09 07:37:44;;;;;;;12.90;6.88;;;2.60;92.10;;;;;;5050451;28;20063;-80
2022/03/09 07:40:10;;;;;;;12.55;6.35;;;2.70;92.10;;;;;;5049576;28;20029;-80
2022/03/09 07:42:36;;;;;;;13.00;6.30;;;2.80;92.00;;;;;;5034000;28;20045;-80
2022/03/09 07:45:06;;;;;;;12.43;5.80;;;2.90;91.80;;;;;;5050754;28;20124;-80
2022/03/09 07:47:32;;;;;;;11.43;6.28;;;3.00;91.70;;;;;;5034004;28;20041;-80
2022/03/09 07:49:58;;;;;;;15.13;6.47;;;3.10;91.40;;;;;;5033867;28;20091;-80
2022/03/09 07:52:23;;;;;;;12.25;6.57;;;3.10;91.30;;;;;;5032441;28;20048;-80
2022/03/09 07:54:49;;;;;;;12.13;6.45;;;3.20;91.20;;;;;;5033643;28;20478;-81
2022/03/09 07:57:15;;;;;;;12.68;6.32;;;3.40;91.10;;;;;;5049980;28;20115;-81
2022/03/09 07:59:40;;;;;;;11.73;5.88;;;3.40;90.70;;;;;;5050373;28;20044;-80
2022/03/09 08:02:07;;;;;;;12.80;6.55;;;3.50;90.60;;;;;;5050324;28;20043;-81
2022/03/09 08:04:33;;;;;;;13.40;6.25;;;3.60;90.40;;;;;;5049791;28;20084;-80
2022/03/09 08:06:59;;;;;;;11.90;6.32;;;3.70;90.40;;;;;;5050071;28;20072;-80
2022/03/09 08:09:25;;;;;;;12.63;6.50;;;3.80;89.80;;;;;;5050564;28;20087;-80
2022/03/09 08:11:50;;;;;;;13.80;6.70;;;4.00;89.70;;;;;;5050236;28;20483;-80
2022/03/09 08:14:16;;;;;;;11.82;6.22;;;4.10;89.30;;;;;;5049833;28;20044;-81
2022/03/09 08:16:42;;;;;;;11.05;6.18;;;4.20;87.90;;;;;;5033710;28;20142;-81
2022/03/09 08:19:07;;;;;;;13.20;5.75;;;4.30;86.70;;;;;;5049713;28;20037;-81
2022/03/09 08:21:33;;;;;;;12.13;6.32;;;4.40;86.10;;;;;;5033538;28;20048;-81
2022/03/09 08:23:59;;;;;;;11.65;6.15;;;4.50;85.10;;;;;;5050396;28;20051;-81
2022/03/09 08:26:24;;;;;;;11.30;5.85;;;4.60;84.40;;;;;;5033165;28;20518;-81
2022/03/09 08:28:50;;;;;;;11.93;6.15;;;4.80;83.70;;;;;;5050172;28;20037;-81
2022/03/09 08:31:17;;;;;;;14.90;6.50;;;4.90;82.70;;;;;;5049806;28;20045;-81
2022/03/09 08:33:42;;;;;;;11.25;6.32;;;5.00;81.30;;;;;;5049445;28;20051;-81
2022/03/09 08:36:08;;;;;;;10.82;5.80;;;5.10;81.00;;;;;;5049767;28;20120;-81
2022/03/09 08:38:34;;;;;;;12.32;5.90;;;5.20;80.50;;;;;;5049593;28;20429;-81
2022/03/09 08:40:59;;;;;;;10.68;6.18;;;5.30;79.60;;;;;;5049539;28;20044;-81
2022/03/09 08:43:25;;;;;;;11.13;5.90;;;5.40;79.60;;;;;;5033293;28;20103;-80
2022/03/09 08:45:51;;;;;;;12.65;6.20;;;5.50;79.30;;;;;;5049482;28;20055;-81
2022/03/09 08:48:17;;;;;;;12.57;6.60;;;5.60;78.50;;;;;;5049604;28;20084;-81
2022/03/09 08:50:43;;;;;;;11.63;6.47;;;5.80;78.20;;;;;;5049785;28;20103;-81
2022/03/09 08:53:09;;;;;;;10.93;6.53;;;5.90;77.20;;;;;;5053084;28;20037;-81
2022/03/09 08:55:35;;;;;;;11.63;6.95;;;6.00;77.10;;;;;;5053302;28;20039;-81
2022/03/09 08:58:01;;;;;;;12.52;6.38;;;6.10;77.30;;;;;;5053693;28;20033;-81
2022/03/09 09:00:27;;;;;;;10.88;6.00;;;6.30;76.20;;;;;;5053823;28;20143;-81
2022/03/09 09:02:53;;;;;;;12.45;6.57;;;6.40;75.30;;;;;;5053183;28;20060;-81
2022/03/09 09:05:19;;;;;;;11.80;6.32;;;6.50;74.80;;;;;;5052862;28;20037;-81
2022/03/09 09:07:45;;;;;;;12.77;6.55;;;6.60;74.30;;;;;;5037021;28;20522;-81
2022/03/09 09:10:11;;;;;;;13.27;6.53;;;6.70;73.80;;;;;;5036794;28;20048;-81
2022/03/09 09:12:37;;;;;;;12.13;6.78;;;6.80;73.50;;;;;;5053646;28;20037;-82
2022/03/09 09:15:04;;;;;;;13.98;7.65;;;7.00;73.70;;;;;;5053068;28;20036;-82
2022/03/09 09:17:30;;;;;;;11.38;6.28;;;7.10;73.50;;;;;;5053644;28;20091;-82
2022/03/09 09:19:55;;;;;;;13.70;7.55;;;7.20;72.40;;;;;;5053791;28;20130;-81
2022/03/09 09:22:21;;;;;;;11.98;6.30;;;7.40;71.90;;;;;;5053472;28;20048;-81
2022/03/09 09:24:47;;;;;;;12.88;6.30;;;7.50;70.50;;;;;;5053410;28;20051;-81
2022/03/09 09:27:12;;;;;;;15.32;7.18;;;7.60;69.10;;;;;;5053574;28;20063;-81
2022/03/09 09:29:38;;;;;;;11.77;6.72;;;7.70;67.60;;;;;;5053633;28;20048;-82
2022/03/09 09:32:04;;;;;;;13.23;7.18;;;7.80;66.80;;;;;;5036378;28;20048;-81
2022/03/09 09:34:30;;;;;;;12.35;6.40;;;7.90;65.70;;;;;;5051229;28;20037;-81
2022/03/09 09:36:55;;;;;;;12.43;6.72;;;8.00;65.30;;;;;;5052373;28;20041;-82
2022/03/09 09:39:21;;;;;;;12.95;7.00;;;8.10;65.00;;;;;;5052861;28;20041;-81
2022/03/09 09:41:51;;;;;;;13.25;7.00;;;8.30;65.00;;;;;;5052964;28;20045;-81
2022/03/09 09:44:19;;;;;;;11.65;6.28;;;8.40;63.70;;;;;;5036148;28;20047;-82
2022/03/09 09:46:45;;;;;;;11.52;7.00;;;8.50;63.20;;;;;;5052781;28;20564;-81
2022/03/09 09:49:12;;;;;;;13.50;6.82;;;8.70;62.50;;;;;;5053153;28;20072;-82
2022/03/09 09:51:40;;;;;;;11.90;6.78;;;8.80;62.20;;;;;;5053070;28;20037;-82
2022/03/09 09:54:07;;;;;;;13.95;7.07;;;8.90;62.10;;;;;;5036338;28;20047;-82
2022/03/09 09:56:38;;;;;;;13.80;7.13;;;9.10;61.10;;;;;;5052529;28;20112;-82
2022/03/09 09:59:04;;;;;;;11.68;7.05;;;9.20;61.20;;;;;;5052428;28;20128;-81
2022/03/09 10:01:30;;;;;;;12.13;6.93;;;9.30;61.40;;;;;;5052361;28;20057;-81
2022/03/09 10:03:55;;;;;;;11.90;7.45;;;9.40;60.90;;;;;;5051516;28;20044;-82
2022/03/09 10:06:21;;;;;;;12.35;6.55;;;9.50;60.90;;;;;;5052177;28;20037;-82
2022/03/09 10:09:11;;;;;;;13.32;7.13;;;9.60;60.00;;;;;;5052460;28;20128;-81
2022/03/09 10:11:48;;;;;;;14.25;6.97;;;9.70;58.90;;;;;;5052116;28;20518;-81
2022/03/09 10:14:15;;;;;;;13.40;6.78;;;9.70;56.80;;;;;;5052247;28;20044;-81
2022/03/09 10:17:26;;;;;;;13.70;6.85;;;9.70;56.20;;;;;;5035485;28;20486;-81
2022/03/09 10:19:55;;;;;;;13.10;7.10;;;9.70;55.00;;;;;;4998068;28;20048;-81
2022/03/09 10:22:28;;;;;;;12.27;6.72;;;9.70;55.80;;;;;;5031164;28;20049;-81
2022/03/09 10:24:57;;;;;;;13.57;7.60;;;9.80;55.80;;;;;;5034967;28;20494;-81
2022/03/09 10:27:39;;;;;;;11.35;7.45;;;10.00;55.90;;;;;;5035659;28;20060;-81
2022/03/09 10:30:11;;;;;;;11.38;6.22;;;10.10;56.10;;;;;;5035505;28;20037;-81
2022/03/09 10:32:48;;;;;;;11.88;7.28;;;10.40;55.70;;;;;;5052026;28;20045;-81
2022/03/09 10:35:17;;;;;;;13.85;7.38;;;10.60;54.50;;;;;;5050336;28;20772;-80
2022/03/09 10:37:45;;;;;;;13.85;7.68;;;10.70;54.60;;;;;;5052051;28;20037;-79
2022/03/09 10:40:18;;;;;;;10.95;7.10;;;10.90;53.30;;;;;;5048957;28;20044;-78
2022/03/09 10:42:44;;;;;;;11.00;6.72;;;11.00;53.70;;;;;;5050821;28;20419;-80
2022/03/09 10:45:10;;;;;;;13.05;7.78;;;11.10;53.70;;;;;;5056338;28;20036;-81
2022/03/09 10:47:42;;;;;;;13.43;7.25;;;11.20;53.00;;;;;;5071938;28;20106;-81
2022/03/09 10:50:21;;;;;;;13.27;8.15;;;11.30;53.70;;;;;;5055853;28;20044;-80
2022/03/09 10:52:57;;;;;;;12.75;7.30;;;11.50;52.80;;;;;;5071965;28;20036;-80
2022/03/09 10:55:31;;;;;;;11.77;7.82;;;11.70;53.20;;;;;;5071391;28;20460;-80
2022/03/09 10:58:12;;;;;;;11.95;7.57;;;11.90;52.50;;;;;;5071953;28;20123;-80
2022/03/09 11:00:42;;;;;;;14.73;8.10;;;12.10;52.10;;;;;;5054783;28;20051;-81
2022/03/09 11:03:11;;;;;;;11.77;7.45;;;12.20;52.20;;;;;;5071353;28;20509;-81
2022/03/09 11:05:46;;;;;;;11.05;7.50;;;12.30;50.90;;;;;;5068402;28;20040;-81
2022/03/09 11:08:13;;;;;;;12.00;7.95;;;12.60;49.30;;;;;;5071672;28;20124;-81
2022/03/09 11:10:38;;;;;;;12.25;7.82;;;12.70;49.40;;;;;;5058288;28;20056;-81
2022/03/09 11:13:05;;;;;;;11.60;7.78;;;12.80;49.20;;;;;;5050951;28;20037;-81
2022/03/09 11:15:31;;;;;;;12.10;7.45;;;12.80;48.40;;;;;;5033788;28;20591;-81
2022/03/09 11:17:57;;;;;;;13.98;8.07;;;13.00;49.30;;;;;;5051173;28;20045;-81
2022/03/09 11:20:22;;;;;;;11.07;7.20;;;13.10;48.60;;;;;;5051167;28;20143;-81
2022/03/09 11:22:50;;;;;;;11.88;7.43;;;13.20;48.90;;;;;;5051271;28;20486;-82
2022/03/09 11:25:16;;;;;;;12.32;7.70;;;13.30;47.20;;;;;;5051290;28;20043;-81
2022/03/09 11:27:44;;;;;;;11.57;7.53;;;13.30;47.40;;;;;;5034594;28;20708;-81
2022/03/09 11:30:30;;;;;;;14.60;8.02;;;13.50;46.90;;;;;;5057323;28;20402;-82
2022/03/09 11:32:57;;;;;;;12.15;8.18;;;13.70;46.30;;;;;;5069929;28;20048;-82
2022/03/09 11:35:31;;;;;;;11.15;8.20;;;13.80;46.10;;;;;;5050560;28;20041;-82
2022/03/09 11:37:57;;;;;;;11.00;8.10;;;14.00;47.30;;;;;;5050808;28;20033;-82
2022/03/09 11:40:23;;;;;;;15.23;7.97;;;14.20;45.90;;;;;;5050672;28;20040;-82
2022/03/09 11:42:48;;;;;;;12.57;8.52;;;14.30;46.40;;;;;;5050675;28;20033;-82
2022/03/09 11:45:14;;;;;;;12.20;8.65;;;14.50;46.90;;;;;;5050064;28;20036;-82
2022/03/09 11:47:59;;;;;;;11.48;7.30;;;14.60;45.00;;;;;;5050687;28;20498;-82
2022/03/09 11:50:26;;;;;;;14.98;8.60;;;14.80;44.60;;;;;;5050469;28;20059;-82
2022/03/09 11:53:01;;;;;;;12.73;8.13;;;14.90;43.60;;;;;;5050573;28;20040;-82
2022/03/09 11:55:28;;;;;;;12.80;8.40;;;15.00;43.50;;;;;;5050007;28;20091;-82
2022/03/09 11:58:00;;;;;;;11.73;7.97;;;15.20;43.30;;;;;;5050224;28;20091;-82
2022/03/09 12:00:26;;;;;;;;;;;15.40;42.40;;;;;;5034224;28;20076;-82
2022/03/09 12:02:57;;;;;;;11.30;7.78;;;15.50;42.30;;;;;;5050322;28;19959;-82
2022/03/09 12:05:25;;;;;;;12.85;8.70;;;15.70;42.70;;;;;;5050330;28;20095;-82
2022/03/09 12:07:52;;;;;;;12.25;7.88;;;15.80;42.50;;;;;;5050076;28;20045;-82
2022/03/09 12:10:21;;;;;;;13.00;8.60;;;15.90;42.20;;;;;;5048876;28;20041;-82
2022/03/09 12:13:15;;;;;;;12.75;8.30;;;16.10;42.80;;;;;;5033648;28;20041;-82
2022/03/09 12:15:58;;;;;;;14.57;8.82;;;16.20;43.40;;;;;;4995641;28;20053;-82
2022/03/09 12:18:34;;;;;;;11.45;8.02;;;16.30;42.80;;;;;;4996386;28;20049;-82
2022/03/09 12:20:59;;;;;;;11.93;7.82;;;16.60;42.20;;;;;;5012553;28;20276;-82
2022/03/09 12:23:25;;;;;;;13.15;8.70;;;16.80;42.10;;;;;;5012416;28;20064;-82
2022/03/09 12:25:51;;;;;;;12.10;7.93;;;16.90;41.30;;;;;;5012519;28;20395;-82
2022/03/09 12:28:25;;;;;;;12.48;8.10;;;17.00;40.70;;;;;;4996047;28;20517;-82
2022/03/09 12:30:56;;;;;;;13.05;8.45;;;17.10;39.80;;;;;;5012411;28;20045;-82
2022/03/09 12:33:32;;;;;;;12.77;7.82;;;17.30;38.90;;;;;;5012330;28;20045;-82
2022/03/09 12:36:16;;;;;;;12.13;7.93;;;17.20;39.00;;;;;;5011988;28;20048;-82
2022/03/09 12:38:49;;;;;;;11.75;8.48;;;17.50;39.40;;;;;;5012824;28;20045;-82
2022/03/09 12:41:41;;;;;;;12.63;9.15;;;17.70;39.30;;;;;;5012511;28;20041;-82
2022/03/09 12:44:17;;;;;;;14.05;8.85;;;17.90;37.40;;;;;;5012576;28;20617;-82
2022/03/09 12:46:49;;;;;;;11.65;8.38;;;18.10;36.90;;;;;;5012167;28;20056;-82